Saint Regis Falls, NY (12980)

6:59 PM EDT on September 20, 2014 (GMT -0400)
Deer river | Change Station
CLOSE
Current Station
Personal Weather Station
Location: Brasher Falls-Winthrop, NY
Elevation: 299 ft
Nearby Weather Stations

Elev 299 ft 44.82 °N, 74.69 °W | Updated 10 minutes ago

Overcast
Overcast
68.9 °F
Feels Like 68.9 °F
N
8.9
Wind Variable Wind from South

Today
High -- | Low -- °F
--% Chance of Precip.
Yesterday
High -- | Low -- °F
Precip. -- in
6:43 AM 6:59 PM
Waning Crescent, 10% visible
Pressure 29.86 in
Visibility 10.0 miles
Clouds Scattered Clouds 12000 ft
Dew Point 61 °F
Humidity 76%
Rainfall 0.00 in
Snow Depth Not available.
UV 0 out of 12
Pollen 3.30 out of 12
Air Quality Not available.
Flu Activity Not available.
METAR KMSS 202253Z AUTO 18012KT 10SM SCT120 21/15 A2985 RMK AO2 SLP109 T02060150

More Conditions Fewer Conditions

Pressure 29.86 in
Visibility 10.0 miles
Clouds Scattered Clouds 12000 ft
Dew Point 61 °F
Humidity 76%
Rainfall 0.00 in
Snow Depth Not available.
UV 0 out of 12
Pollen 3.30 out of 12
Air Quality Not available.
Flu Activity Not available.
METAR KMSS 202253Z AUTO 18012KT 10SM SCT120 21/15 A2985 RMK AO2 SLP109 T02060150

More Conditions Fewer Conditions

10-Day Weather Forecast

Almanac

Astronomy

Sep. 20, 2014 Rise Set
Actual Time 6:43 AM EDT 6:59 PM EDT
Civil Twilight 6:14 AM EDT 7:29 PM EDT
Nautical Twilight 5:39 AM EDT 8:03 PM EDT
Astronomical Twilight 5:04 AM EDT 8:38 PM EDT
Moon 3:13 AM EDT 5:07 PM EDT
Length of Visible Light 13h 14m
Length of Day
12h 16m
Tomorrow will be 3m 4s shorter.
Waning Crescent, 10% of the Moon is Illuminated
Today
Waning Crescent
Sep 24
New
Oct 1
First Quarter
Oct 8
Full
Oct 15
Last Quarter

Today's Extremes

State Highs State Lows

Community

WunderPhotos

Upload Photos

1,754,970 photos uploaded!

WunderBlogs® & News

Nearby

Air Quality

  Air Quality AQ Index Pollutant
Saturday Good
OZONE
Saturday Good
PM2.5
Sunday Good
OZONE
Sunday Good
PM2.5
Monday Good
OZONE
Monday Good
PM2.5

Snow Depth

Station Depth Elevation
No new snow has been reported.

Earthquake Activity

City Distance Mag. Time & Date
No recent earthquake activity has been reported nearby.
Minimum magnitude displayed is 2.5.

Coastal Water Temperatures

Place Temperature
Ogdensburg, NY 64.9 °F
Alexandria Bay, NY 64.9 °F

Nearby Weather Stations